sensor_id;sensor_type;location;lat;lon;timestamp;temperature;humidity
1455;DHT22;721;48.168;12.818;2022-09-03T00:01:38;14.50;14.70
1455;DHT22;721;48.168;12.818;2022-09-03T00:04:13;14.50;13.80
1455;DHT22;721;48.168;12.818;2022-09-03T00:06:47;14.50;14.70
1455;DHT22;721;48.168;12.818;2022-09-03T00:09:20;14.50;13.40
1455;DHT22;721;48.168;12.818;2022-09-03T00:11:52;14.50;13.50
1455;DHT22;721;48.168;12.818;2022-09-03T00:14:24;14.40;13.80
1455;DHT22;721;48.168;12.818;2022-09-03T00:16:55;14.30;14.10
1455;DHT22;721;48.168;12.818;2022-09-03T00:19:30;14.30;14.60
1455;DHT22;721;48.168;12.818;2022-09-03T00:22:01;14.30;14.50
1455;DHT22;721;48.168;12.818;2022-09-03T00:24:34;14.20;14.30
1455;DHT22;721;48.168;12.818;2022-09-03T00:27:06;14.10;14.80
1455;DHT22;721;48.168;12.818;2022-09-03T00:29:40;14.10;15.90
1455;DHT22;721;48.168;12.818;2022-09-03T00:32:13;14.00;15.80
1455;DHT22;721;48.168;12.818;2022-09-03T00:34:45;14.10;15.00
1455;DHT22;721;48.168;12.818;2022-09-03T00:37:15;14.10;16.00
1455;DHT22;721;48.168;12.818;2022-09-03T00:39:43;14.00;15.90
1455;DHT22;721;48.168;12.818;2022-09-03T00:42:29;14.00;16.20
1455;DHT22;721;48.168;12.818;2022-09-03T00:45:07;14.00;16.40
1455;DHT22;721;48.168;12.818;2022-09-03T00:47:45;13.90;16.30
1455;DHT22;721;48.168;12.818;2022-09-03T00:50:20;13.90;16.30
1455;DHT22;721;48.168;12.818;2022-09-03T00:52:59;13.90;17.20
1455;DHT22;721;48.168;12.818;2022-09-03T00:55:39;13.90;16.40
1455;DHT22;721;48.168;12.818;2022-09-03T01:01:25;13.90;17.80
1455;DHT22;721;48.168;12.818;2022-09-03T01:04:07;13.90;17.20
1455;DHT22;721;48.168;12.818;2022-09-03T01:06:40;13.80;17.00
1455;DHT22;721;48.168;12.818;2022-09-03T01:09:21;13.80;16.60
1455;DHT22;721;48.168;12.818;2022-09-03T01:12:02;13.70;17.90
1455;DHT22;721;48.168;12.818;2022-09-03T01:14:46;13.80;17.80
1455;DHT22;721;48.168;12.818;2022-09-03T01:17:24;13.90;16.50
1455;DHT22;721;48.168;12.818;2022-09-03T01:20:11;13.80;17.40
1455;DHT22;721;48.168;12.818;2022-09-03T01:25:48;13.80;17.20
1455;DHT22;721;48.168;12.818;2022-09-03T01:28:30;13.70;17.50
1455;DHT22;721;48.168;12.818;2022-09-03T01:31:05;13.60;17.60
1455;DHT22;721;48.168;12.818;2022-09-03T01:33:39;13.50;18.40
1455;DHT22;721;48.168;12.818;2022-09-03T01:36:14;13.70;18.00
1455;DHT22;721;48.168;12.818;2022-09-03T01:38:49;13.60;17.80
1455;DHT22;721;48.168;12.818;2022-09-03T01:41:26;13.60;18.90
1455;DHT22;721;48.168;12.818;2022-09-03T01:44:21;13.60;18.50
1455;DHT22;721;48.168;12.818;2022-09-03T01:47:00;13.60;17.90
1455;DHT22;721;48.168;12.818;2022-09-03T01:49:37;13.60;18.10
1455;DHT22;721;48.168;12.818;2022-09-03T01:52:12;13.60;18.80
1455;DHT22;721;48.168;12.818;2022-09-03T01:54:51;13.60;18.30
1455;DHT22;721;48.168;12.818;2022-09-03T01:57:40;13.80;16.50
1455;DHT22;721;48.168;12.818;2022-09-03T02:00:11;13.60;17.10
1455;DHT22;721;48.168;12.818;2022-09-03T02:02:42;13.60;17.30
1455;DHT22;721;48.168;12.818;2022-09-03T02:05:14;13.60;17.00
1455;DHT22;721;48.168;12.818;2022-09-03T02:07:47;13.70;17.40
1455;DHT22;721;48.168;12.818;2022-09-03T02:10:16;13.50;17.70
1455;DHT22;721;48.168;12.818;2022-09-03T02:12:47;13.50;18.00
1455;DHT22;721;48.168;12.818;2022-09-03T02:15:19;13.40;17.90
1455;DHT22;721;48.168;12.818;2022-09-03T02:17:48;13.40;18.40
1455;DHT22;721;48.168;12.818;2022-09-03T02:20:18;13.20;19.10
1455;DHT22;721;48.168;12.818;2022-09-03T02:22:46;13.30;20.20
1455;DHT22;721;48.168;12.818;2022-09-03T02:25:14;13.20;20.20
1455;DHT22;721;48.168;12.818;2022-09-03T02:27:41;13.20;21.10
1455;DHT22;721;48.168;12.818;2022-09-03T02:30:10;13.20;20.40
1455;DHT22;721;48.168;12.818;2022-09-03T02:32:38;13.30;19.50
1455;DHT22;721;48.168;12.818;2022-09-03T02:35:06;13.30;19.30
1455;DHT22;721;48.168;12.818;2022-09-03T02:37:33;13.30;19.40
1455;DHT22;721;48.168;12.818;2022-09-03T02:40:00;13.50;19.40
1455;DHT22;721;48.168;12.818;2022-09-03T02:42:31;13.30;18.80
1455;DHT22;721;48.168;12.818;2022-09-03T02:45:05;13.30;19.80
1455;DHT22;721;48.168;12.818;2022-09-03T02:47:35;13.20;20.80
1455;DHT22;721;48.168;12.818;2022-09-03T02:50:06;13.20;20.10
1455;DHT22;721;48.168;12.818;2022-09-03T02:52:34;13.10;20.70
1455;DHT22;721;48.168;12.818;2022-09-03T02:55:01;13.20;19.80
1455;DHT22;721;48.168;12.818;2022-09-03T02:57:28;13.30;19.20
1455;DHT22;721;48.168;12.818;2022-09-03T02:59:55;13.20;20.20
1455;DHT22;721;48.168;12.818;2022-09-03T03:02:22;13.10;21.00
1455;DHT22;721;48.168;12.818;2022-09-03T03:04:49;13.10;21.00
1455;DHT22;721;48.168;12.818;2022-09-03T03:07:20;13.10;21.00
1455;DHT22;721;48.168;12.818;2022-09-03T03:09:50;13.20;20.20
1455;DHT22;721;48.168;12.818;2022-09-03T03:12:16;13.20;20.70
1455;DHT22;721;48.168;12.818;2022-09-03T03:14:44;13.20;19.50
1455;DHT22;721;48.168;12.818;2022-09-03T03:17:11;13.20;19.30
1455;DHT22;721;48.168;12.818;2022-09-03T03:19:38;13.20;19.90
1455;DHT22;721;48.168;12.818;2022-09-03T03:22:07;13.10;21.00
1455;DHT22;721;48.168;12.818;2022-09-03T03:24:36;13.10;20.20
1455;DHT22;721;48.168;12.818;2022-09-03T03:27:03;13.40;20.50
1455;DHT22;721;48.168;12.818;2022-09-03T03:29:32;13.30;19.90
1455;DHT22;721;48.168;12.818;2022-09-03T03:31:59;13.40;19.70
1455;DHT22;721;48.168;12.818;2022-09-03T03:34:26;13.40;19.40
1455;DHT22;721;48.168;12.818;2022-09-03T03:36:53;13.40;19.80
1455;DHT22;721;48.168;12.818;2022-09-03T03:39:20;13.30;20.30
1455;DHT22;721;48.168;12.818;2022-09-03T03:41:52;13.20;20.60
1455;DHT22;721;48.168;12.818;2022-09-03T03:44:22;13.20;20.70
1455;DHT22;721;48.168;12.818;2022-09-03T03:46:51;13.30;20.80
1455;DHT22;721;48.168;12.818;2022-09-03T03:49:18;13.30;20.70
1455;DHT22;721;48.168;12.818;2022-09-03T03:51:46;13.30;20.10
1455;DHT22;721;48.168;12.818;2022-09-03T03:54:15;13.20;20.40
1455;DHT22;721;48.168;12.818;2022-09-03T03:56:42;13.30;20.10
1455;DHT22;721;48.168;12.818;2022-09-03T03:59:13;13.30;20.00
1455;DHT22;721;48.168;12.818;2022-09-03T04:01:41;13.30;19.60
1455;DHT22;721;48.168;12.818;2022-09-03T04:04:08;13.30;21.10
1455;DHT22;721;48.168;12.818;2022-09-03T04:06:35;13.40;20.30
1455;DHT22;721;48.168;12.818;2022-09-03T04:09:02;13.30;20.70
1455;DHT22;721;48.168;12.818;2022-09-03T04:11:29;13.40;19.10
1455;DHT22;721;48.168;12.818;2022-09-03T04:13:56;13.40;19.40
1455;DHT22;721;48.168;12.818;2022-09-03T04:16:26;13.50;19.10
1455;DHT22;721;48.168;12.818;2022-09-03T04:18:55;13.40;18.50
1455;DHT22;721;48.168;12.818;2022-09-03T04:21:23;13.40;19.60
1455;DHT22;721;48.168;12.818;2022-09-03T04:23:52;13.50;19.70
1455;DHT22;721;48.168;12.818;2022-09-03T04:26:20;13.40;18.60
1455;DHT22;721;48.168;12.818;2022-09-03T04:28:48;13.50;19.80
1455;DHT22;721;48.168;12.818;2022-09-03T04:31:17;13.60;18.80
1455;DHT22;721;48.168;12.818;2022-09-03T04:33:45;13.50;19.10
1455;DHT22;721;48.168;12.818;2022-09-03T04:36:17;13.40;19.10
1455;DHT22;721;48.168;12.818;2022-09-03T04:38:45;13.50;19.30
1455;DHT22;721;48.168;12.818;2022-09-03T04:41:14;13.50;20.30
1455;DHT22;721;48.168;12.818;2022-09-03T04:43:44;13.50;19.00
1455;DHT22;721;48.168;12.818;2022-09-03T04:46:15;13.50;18.70
1455;DHT22;721;48.168;12.818;2022-09-03T04:48:42;13.50;18.80
1455;DHT22;721;48.168;12.818;2022-09-03T04:51:12;13.40;18.70
1455;DHT22;721;48.168;12.818;2022-09-03T04:53:41;13.50;19.30
1455;DHT22;721;48.168;12.818;2022-09-03T04:56:13;13.50;18.90
1455;DHT22;721;48.168;12.818;2022-09-03T04:58:41;13.40;18.90
1455;DHT22;721;48.168;12.818;2022-09-03T05:01:08;13.40;19.00
1455;DHT22;721;48.168;12.818;2022-09-03T05:03:35;13.30;19.50
1455;DHT22;721;48.168;12.818;2022-09-03T05:06:09;13.40;19.00
1455;DHT22;721;48.168;12.818;2022-09-03T05:08:40;13.40;18.70
1455;DHT22;721;48.168;12.818;2022-09-03T05:11:07;13.30;19.10
1455;DHT22;721;48.168;12.818;2022-09-03T05:13:34;13.30;19.90
1455;DHT22;721;48.168;12.818;2022-09-03T05:16:04;13.20;19.70
1455;DHT22;721;48.168;12.818;2022-09-03T05:18:31;13.20;19.30
1455;DHT22;721;48.168;12.818;2022-09-03T05:21:01;13.30;19.60
1455;DHT22;721;48.168;12.818;2022-09-03T05:23:30;13.30;19.10
1455;DHT22;721;48.168;12.818;2022-09-03T05:25:58;13.30;18.90
1455;DHT22;721;48.168;12.818;2022-09-03T05:28:26;13.30;19.40
1455;DHT22;721;48.168;12.818;2022-09-03T05:31:03;13.30;19.60
1455;DHT22;721;48.168;12.818;2022-09-03T05:33:32;13.20;20.10
1455;DHT22;721;48.168;12.818;2022-09-03T05:36:00;13.30;20.60
1455;DHT22;721;48.168;12.818;2022-09-03T05:38:28;13.40;19.60
1455;DHT22;721;48.168;12.818;2022-09-03T05:40:57;13.40;19.00
1455;DHT22;721;48.168;12.818;2022-09-03T05:43:25;13.50;19.30
1455;DHT22;721;48.168;12.818;2022-09-03T05:45:56;13.60;18.90
1455;DHT22;721;48.168;12.818;2022-09-03T05:48:25;13.50;20.30
1455;DHT22;721;48.168;12.818;2022-09-03T05:50:58;13.70;18.60
1455;DHT22;721;48.168;12.818;2022-09-03T05:53:32;13.80;17.40
1455;DHT22;721;48.168;12.818;2022-09-03T05:56:00;13.80;18.20
1455;DHT22;721;48.168;12.818;2022-09-03T05:58:30;13.80;17.40
1455;DHT22;721;48.168;12.818;2022-09-03T06:00:57;14.00;18.30
1455;DHT22;721;48.168;12.818;2022-09-03T06:03:24;14.00;17.60
1455;DHT22;721;48.168;12.818;2022-09-03T06:05:54;14.10;16.70
1455;DHT22;721;48.168;12.818;2022-09-03T06:08:21;14.20;16.90
1455;DHT22;721;48.168;12.818;2022-09-03T06:10:56;14.30;15.90
1455;DHT22;721;48.168;12.818;2022-09-03T06:13:23;14.50;14.60
1455;DHT22;721;48.168;12.818;2022-09-03T06:15:55;14.60;13.90
1455;DHT22;721;48.168;12.818;2022-09-03T06:18:22;14.60;14.60
1455;DHT22;721;48.168;12.818;2022-09-03T06:20:53;14.70;14.00
1455;DHT22;721;48.168;12.818;2022-09-03T06:23:20;14.80;13.80
1455;DHT22;721;48.168;12.818;2022-09-03T06:26:00;15.00;13.40
1455;DHT22;721;48.168;12.818;2022-09-03T06:28:29;15.20;11.90
1455;DHT22;721;48.168;12.818;2022-09-03T06:30:57;15.40;10.20
1455;DHT22;721;48.168;12.818;2022-09-03T06:33:24;15.50;10.40
1455;DHT22;721;48.168;12.818;2022-09-03T06:35:53;15.60;9.90
1455;DHT22;721;48.168;12.818;2022-09-03T06:38:22;15.70;10.50
1455;DHT22;721;48.168;12.818;2022-09-03T06:40:54;15.80;10.10
1455;DHT22;721;48.168;12.818;2022-09-03T06:43:36;15.80;9.60
1455;DHT22;721;48.168;12.818;2022-09-03T06:46:05;16.10;7.90
1455;DHT22;721;48.168;12.818;2022-09-03T06:48:34;16.00;8.40
1455;DHT22;721;48.168;12.818;2022-09-03T06:51:03;16.10;8.70
1455;DHT22;721;48.168;12.818;2022-09-03T06:53:32;16.30;7.00
1455;DHT22;721;48.168;12.818;2022-09-03T06:56:00;16.30;8.20
1455;DHT22;721;48.168;12.818;2022-09-03T06:58:29;16.40;6.70
1455;DHT22;721;48.168;12.818;2022-09-03T07:01:05;16.60;7.00
1455;DHT22;721;48.168;12.818;2022-09-03T07:03:33;16.70;5.90
1455;DHT22;721;48.168;12.818;2022-09-03T07:06:00;16.80;5.70
1455;DHT22;721;48.168;12.818;2022-09-03T07:08:28;16.90;6.30
1455;DHT22;721;48.168;12.818;2022-09-03T07:10:57;17.00;5.20
1455;DHT22;721;48.168;12.818;2022-09-03T07:13:24;17.00;5.50
1455;DHT22;721;48.168;12.818;2022-09-03T07:15:58;17.10;6.00
1455;DHT22;721;48.168;12.818;2022-09-03T07:18:26;17.10;4.60
1455;DHT22;721;48.168;12.818;2022-09-03T07:21:04;17.30;4.60
1455;DHT22;721;48.168;12.818;2022-09-03T07:23:38;17.50;3.90
1455;DHT22;721;48.168;12.818;2022-09-03T07:26:08;17.70;2.60
1455;DHT22;721;48.168;12.818;2022-09-03T07:28:38;17.80;2.20
1455;DHT22;721;48.168;12.818;2022-09-03T07:31:07;17.90;2.70
1455;DHT22;721;48.168;12.818;2022-09-03T07:33:36;18.10;1.00
1455;DHT22;721;48.168;12.818;2022-09-03T07:36:06;17.90;1.30
1455;DHT22;721;48.168;12.818;2022-09-03T07:38:36;18.10;1.10
1455;DHT22;721;48.168;12.818;2022-09-03T07:41:04;18.00;1.30
1455;DHT22;721;48.168;12.818;2022-09-03T07:43:35;17.90;1.00
1455;DHT22;721;48.168;12.818;2022-09-03T07:46:02;18.00;2.90
1455;DHT22;721;48.168;12.818;2022-09-03T07:48:30;18.20;1.30
1455;DHT22;721;48.168;12.818;2022-09-03T07:50:59;18.30;1.00
1455;DHT22;721;48.168;12.818;2022-09-03T07:53:26;18.50;1.30
1455;DHT22;721;48.168;12.818;2022-09-03T07:55:54;18.60;1.50
1455;DHT22;721;48.168;12.818;2022-09-03T07:58:21;18.80;1.00
1455;DHT22;721;48.168;12.818;2022-09-03T08:00:49;18.90;1.00
1455;DHT22;721;48.168;12.818;2022-09-03T08:03:16;18.90;1.00
1455;DHT22;721;48.168;12.818;2022-09-03T08:05:43;19.00;1.00
1455;DHT22;721;48.168;12.818;2022-09-03T08:08:11;19.10;1.00
1455;DHT22;721;48.168;12.818;2022-09-03T08:10:39;18.90;1.00
1455;DHT22;721;48.168;12.818;2022-09-03T08:13:06;18.90;1.00
1455;DHT22;721;48.168;12.818;2022-09-03T08:15:35;18.80;1.00
1455;DHT22;721;48.168;12.818;2022-09-03T08:18:04;18.60;1.20
1455;DHT22;721;48.168;12.818;2022-09-03T08:20:31;18.60;2.40
1455;DHT22;721;48.168;12.818;2022-09-03T08:23:01;18.60;1.40
1455;DHT22;721;48.168;12.818;2022-09-03T08:25:30;18.60;1.30
1455;DHT22;721;48.168;12.818;2022-09-03T08:27:58;18.70;1.00
1455;DHT22;721;48.168;12.818;2022-09-03T08:30:27;18.90;1.00
1455;DHT22;721;48.168;12.818;2022-09-03T08:32:54;18.90;1.00
1455;DHT22;721;48.168;12.818;2022-09-03T08:35:21;18.90;1.00
1455;DHT22;721;48.168;12.818;2022-09-03T08:37:48;18.90;1.00
1455;DHT22;721;48.168;12.818;2022-09-03T08:40:19;19.00;1.00
1455;DHT22;721;48.168;12.818;2022-09-03T08:42:57;19.00;1.10
1455;DHT22;721;48.168;12.818;2022-09-03T08:45:28;18.90;1.00
1455;DHT22;721;48.168;12.818;2022-09-03T08:48:02;18.90;2.50
1455;DHT22;721;48.168;12.818;2022-09-03T08:50:33;19.10;2.00
1455;DHT22;721;48.168;12.818;2022-09-03T08:53:07;19.40;1.00
1455;DHT22;721;48.168;12.818;2022-09-03T08:55:40;19.60;1.00
1455;DHT22;721;48.168;12.818;2022-09-03T08:58:12;19.40;1.00
1455;DHT22;721;48.168;12.818;2022-09-03T09:00:45;19.50;1.00
1455;DHT22;721;48.168;12.818;2022-09-03T09:03:32;19.50;2.40
1455;DHT22;721;48.168;12.818;2022-09-03T09:06:07;19.70;2.30
1455;DHT22;721;48.168;12.818;2022-09-03T09:08:40;20.00;1.00
1455;DHT22;721;48.168;12.818;2022-09-03T09:11:19;20.10;1.50
1455;DHT22;721;48.168;12.818;2022-09-03T09:13:53;20.10;1.60
1455;DHT22;721;48.168;12.818;2022-09-03T09:16:27;20.30;1.00
1455;DHT22;721;48.168;12.818;2022-09-03T09:19:08;20.50;1.00
1455;DHT22;721;48.168;12.818;2022-09-03T09:21:39;20.50;1.00
1455;DHT22;721;48.168;12.818;2022-09-03T09:24:16;20.40;1.00
1455;DHT22;721;48.168;12.818;2022-09-03T09:26:46;20.40;1.00
1455;DHT22;721;48.168;12.818;2022-09-03T09:29:15;20.70;1.20
1455;DHT22;721;48.168;12.818;2022-09-03T09:31:42;20.90;1.00
1455;DHT22;721;48.168;12.818;2022-09-03T09:34:10;21.10;1.00
1455;DHT22;721;48.168;12.818;2022-09-03T09:36:42;21.10;1.00
1455;DHT22;721;48.168;12.818;2022-09-03T09:39:10;21.20;1.00
1455;DHT22;721;48.168;12.818;2022-09-03T09:41:36;21.40;1.00
1455;DHT22;721;48.168;12.818;2022-09-03T09:44:03;21.70;1.00
1455;DHT22;721;48.168;12.818;2022-09-03T09:46:35;21.70;1.00
1455;DHT22;721;48.168;12.818;2022-09-03T09:49:17;21.70;1.00
1455;DHT22;721;48.168;12.818;2022-09-03T09:51:47;21.80;1.00
1455;DHT22;721;48.168;12.818;2022-09-03T09:54:16;22.00;1.00
1455;DHT22;721;48.168;12.818;2022-09-03T09:56:45;22.00;1.00
1455;DHT22;721;48.168;12.818;2022-09-03T09:59:13;21.90;1.00
1455;DHT22;721;48.168;12.818;2022-09-03T10:01:42;21.90;1.00
1455;DHT22;721;48.168;12.818;2022-09-03T10:04:12;22.00;1.00
1455;DHT22;721;48.168;12.818;2022-09-03T10:06:53;22.10;1.00
1455;DHT22;721;48.168;12.818;2022-09-03T10:09:23;22.30;1.00
1455;DHT22;721;48.168;12.818;2022-09-03T10:12:02;22.50;1.00
1455;DHT22;721;48.168;12.818;2022-09-03T10:14:35;22.60;1.00
1455;DHT22;721;48.168;12.818;2022-09-03T10:17:12;22.80;1.00
1455;DHT22;721;48.168;12.818;2022-09-03T10:19:51;22.70;1.00
1455;DHT22;721;48.168;12.818;2022-09-03T10:22:39;22.90;1.00
1455;DHT22;721;48.168;12.818;2022-09-03T10:25:13;22.90;1.00
1455;DHT22;721;48.168;12.818;2022-09-03T10:27:41;23.00;1.00
1455;DHT22;721;48.168;12.818;2022-09-03T10:30:10;23.30;1.00
1455;DHT22;721;48.168;12.818;2022-09-03T10:32:46;23.40;1.00
1455;DHT22;721;48.168;12.818;2022-09-03T10:35:22;23.60;1.00
1455;DHT22;721;48.168;12.818;2022-09-03T10:38:01;23.70;1.00
1455;DHT22;721;48.168;12.818;2022-09-03T10:40:37;23.80;1.00
1455;DHT22;721;48.168;12.818;2022-09-03T10:43:19;23.80;1.00
1455;DHT22;721;48.168;12.818;2022-09-03T10:46:02;24.00;1.00
1455;DHT22;721;48.168;12.818;2022-09-03T10:51:37;24.10;1.00
1455;DHT22;721;48.168;12.818;2022-09-03T10:54:24;24.10;1.00
1455;DHT22;721;48.168;12.818;2022-09-03T10:57:05;24.00;1.00
1455;DHT22;721;48.168;12.818;2022-09-03T10:59:43;23.90;1.00
1455;DHT22;721;48.168;12.818;2022-09-03T11:02:26;24.20;1.00
1455;DHT22;721;48.168;12.818;2022-09-03T11:04:59;24.20;1.00
1455;DHT22;721;48.168;12.818;2022-09-03T11:07:37;24.20;1.00
1455;DHT22;721;48.168;12.818;2022-09-03T11:10:12;24.20;1.00
1455;DHT22;721;48.168;12.818;2022-09-03T11:12:43;24.20;1.00
1455;DHT22;721;48.168;12.818;2022-09-03T11:15:17;24.30;1.00
1455;DHT22;721;48.168;12.818;2022-09-03T11:17:51;24.30;1.00
1455;DHT22;721;48.168;12.818;2022-09-03T11:20:24;24.30;1.00
1455;DHT22;721;48.168;12.818;2022-09-03T11:22:53;24.30;1.00
1455;DHT22;721;48.168;12.818;2022-09-03T11:25:30;24.50;1.00
1455;DHT22;721;48.168;12.818;2022-09-03T11:28:07;24.30;1.00
1455;DHT22;721;48.168;12.818;2022-09-03T11:30:51;24.40;1.00
1455;DHT22;721;48.168;12.818;2022-09-03T11:33:22;24.40;1.00
1455;DHT22;721;48.168;12.818;2022-09-03T11:35:56;24.20;1.00
1455;DHT22;721;48.168;12.818;2022-09-03T11:38:26;23.90;1.00
1455;DHT22;721;48.168;12.818;2022-09-03T11:41:02;23.90;1.00
1455;DHT22;721;48.168;12.818;2022-09-03T11:43:31;23.80;1.00
1455;DHT22;721;48.168;12.818;2022-09-03T11:46:04;23.70;1.00
1455;DHT22;721;48.168;12.818;2022-09-03T11:48:38;23.80;1.00
1455;DHT22;721;48.168;12.818;2022-09-03T11:51:18;23.80;1.00
1455;DHT22;721;48.168;12.818;2022-09-03T11:53:54;23.80;1.00
1455;DHT22;721;48.168;12.818;2022-09-03T11:56:21;24.00;1.00
1455;DHT22;721;48.168;12.818;2022-09-03T11:59:14;24.30;1.00
1455;DHT22;721;48.168;12.818;2022-09-03T12:01:46;24.30;1.00
1455;DHT22;721;48.168;12.818;2022-09-03T12:04:19;24.50;1.00
1455;DHT22;721;48.168;12.818;2022-09-03T12:07:25;24.80;1.00
1455;DHT22;721;48.168;12.818;2022-09-03T12:10:10;24.60;1.00
1455;DHT22;721;48.168;12.818;2022-09-03T12:12:48;24.60;1.00
1455;DHT22;721;48.168;12.818;2022-09-03T12:15:30;24.50;1.00
1455;DHT22;721;48.168;12.818;2022-09-03T12:18:03;24.60;1.00
1455;DHT22;721;48.168;12.818;2022-09-03T12:20:47;24.90;1.00
1455;DHT22;721;48.168;12.818;2022-09-03T12:23:27;25.10;1.00
1455;DHT22;721;48.168;12.818;2022-09-03T12:25:55;25.20;1.00
1455;DHT22;721;48.168;12.818;2022-09-03T12:28:24;25.30;1.00
1455;DHT22;721;48.168;12.818;2022-09-03T12:30:52;25.60;1.00
1455;DHT22;721;48.168;12.818;2022-09-03T12:33:21;25.40;1.00
1455;DHT22;721;48.168;12.818;2022-09-03T12:35:58;25.00;1.00
1455;DHT22;721;48.168;12.818;2022-09-03T12:38:28;24.90;1.00
1455;DHT22;721;48.168;12.818;2022-09-03T12:40:56;25.00;1.00
1455;DHT22;721;48.168;12.818;2022-09-03T12:43:27;25.00;1.00
1455;DHT22;721;48.168;12.818;2022-09-03T12:45:55;25.00;1.00
1455;DHT22;721;48.168;12.818;2022-09-03T12:48:22;25.00;1.00
1455;DHT22;721;48.168;12.818;2022-09-03T12:51:01;24.80;1.00
1455;DHT22;721;48.168;12.818;2022-09-03T12:53:30;24.60;1.00
1455;DHT22;721;48.168;12.818;2022-09-03T12:56:00;24.70;1.00
1455;DHT22;721;48.168;12.818;2022-09-03T12:58:34;24.80;1.00
1455;DHT22;721;48.168;12.818;2022-09-03T13:01:07;24.80;1.00
1455;DHT22;721;48.168;12.818;2022-09-03T13:03:41;24.90;1.00
1455;DHT22;721;48.168;12.818;2022-09-03T13:06:12;24.90;1.00
1455;DHT22;721;48.168;12.818;2022-09-03T13:08:46;25.00;1.00
1455;DHT22;721;48.168;12.818;2022-09-03T13:11:16;25.00;1.00
1455;DHT22;721;48.168;12.818;2022-09-03T13:13:52;24.90;1.00
1455;DHT22;721;48.168;12.818;2022-09-03T13:19:27;25.40;1.00
1455;DHT22;721;48.168;12.818;2022-09-03T13:22:01;25.80;1.00
1455;DHT22;721;48.168;12.818;2022-09-03T13:24:58;26.30;1.00
1455;DHT22;721;48.168;12.818;2022-09-03T13:27:33;26.60;1.00
1455;DHT22;721;48.168;12.818;2022-09-03T13:30:07;26.80;1.00
1455;DHT22;721;48.168;12.818;2022-09-03T13:32:43;27.00;1.00
1455;DHT22;721;48.168;12.818;2022-09-03T13:35:20;27.20;1.00
1455;DHT22;721;48.168;12.818;2022-09-03T13:37:54;27.20;1.00
1455;DHT22;721;48.168;12.818;2022-09-03T13:40:30;27.30;1.00
1455;DHT22;721;48.168;12.818;2022-09-03T13:43:02;27.40;1.00
1455;DHT22;721;48.168;12.818;2022-09-03T13:45:36;27.70;1.00
1455;DHT22;721;48.168;12.818;2022-09-03T13:48:10;27.50;1.00
1455;DHT22;721;48.168;12.818;2022-09-03T13:51:06;27.50;1.00
1455;DHT22;721;48.168;12.818;2022-09-03T13:53:51;27.50;1.00
1455;DHT22;721;48.168;12.818;2022-09-03T13:56:31;27.50;1.00
1455;DHT22;721;48.168;12.818;2022-09-03T13:59:06;27.50;1.00
1455;DHT22;721;48.168;12.818;2022-09-03T14:01:57;27.60;1.00
1455;DHT22;721;48.168;12.818;2022-09-03T14:04:39;27.20;1.00
1455;DHT22;721;48.168;12.818;2022-09-03T14:07:12;26.80;1.00
1455;DHT22;721;48.168;12.818;2022-09-03T14:09:48;26.60;1.00
1455;DHT22;721;48.168;12.818;2022-09-03T14:12:28;26.40;1.00
1455;DHT22;721;48.168;12.818;2022-09-03T14:15:00;26.30;1.00
1455;DHT22;721;48.168;12.818;2022-09-03T14:17:37;26.10;1.00
1455;DHT22;721;48.168;12.818;2022-09-03T14:20:09;26.00;1.00
1455;DHT22;721;48.168;12.818;2022-09-03T14:22:49;25.90;1.00
1455;DHT22;721;48.168;12.818;2022-09-03T14:25:19;25.80;1.00
1455;DHT22;721;48.168;12.818;2022-09-03T14:27:49;25.60;1.00
1455;DHT22;721;48.168;12.818;2022-09-03T14:30:23;25.50;1.00
1455;DHT22;721;48.168;12.818;2022-09-03T14:32:57;25.20;1.00
1455;DHT22;721;48.168;12.818;2022-09-03T14:38:37;25.30;1.00
1455;DHT22;721;48.168;12.818;2022-09-03T14:41:21;25.40;1.00
1455;DHT22;721;48.168;12.818;2022-09-03T14:44:16;25.60;1.00
1455;DHT22;721;48.168;12.818;2022-09-03T14:46:55;25.80;1.00
1455;DHT22;721;48.168;12.818;2022-09-03T14:49:37;26.00;1.00
1455;DHT22;721;48.168;12.818;2022-09-03T14:52:28;26.00;1.00
1455;DHT22;721;48.168;12.818;2022-09-03T14:55:14;26.20;1.00
1455;DHT22;721;48.168;12.818;2022-09-03T14:58:04;26.10;1.00
1455;DHT22;721;48.168;12.818;2022-09-03T15:00:44;26.30;1.00
1455;DHT22;721;48.168;12.818;2022-09-03T15:06:22;26.20;1.00
1455;DHT22;721;48.168;12.818;2022-09-03T15:09:14;26.40;1.00
1455;DHT22;721;48.168;12.818;2022-09-03T15:11:51;26.50;1.00
1455;DHT22;721;48.168;12.818;2022-09-03T15:14:25;26.30;1.00
1455;DHT22;721;48.168;12.818;2022-09-03T15:16:59;26.30;1.00
1455;DHT22;721;48.168;12.818;2022-09-03T15:19:44;26.20;1.00
1455;DHT22;721;48.168;12.818;2022-09-03T15:22:24;26.20;1.00
1455;DHT22;721;48.168;12.818;2022-09-03T15:24:57;26.00;1.00
1455;DHT22;721;48.168;12.818;2022-09-03T15:27:42;25.80;1.00
1455;DHT22;721;48.168;12.818;2022-09-03T15:30:14;25.60;1.00
1455;DHT22;721;48.168;12.818;2022-09-03T15:32:55;25.60;1.00
1455;DHT22;721;48.168;12.818;2022-09-03T15:35:43;25.40;1.00
1455;DHT22;721;48.168;12.818;2022-09-03T15:38:18;25.20;1.00
1455;DHT22;721;48.168;12.818;2022-09-03T15:40:50;25.20;1.00
1455;DHT22;721;48.168;12.818;2022-09-03T15:43:21;25.20;1.00
1455;DHT22;721;48.168;12.818;2022-09-03T15:45:54;25.00;1.00
1455;DHT22;721;48.168;12.818;2022-09-03T15:48:31;25.00;1.00
1455;DHT22;721;48.168;12.818;2022-09-03T15:51:09;25.00;1.00
1455;DHT22;721;48.168;12.818;2022-09-03T15:53:44;24.90;1.00
1455;DHT22;721;48.168;12.818;2022-09-03T15:56:19;24.80;1.00
1455;DHT22;721;48.168;12.818;2022-09-03T15:58:54;24.70;1.00
1455;DHT22;721;48.168;12.818;2022-09-03T16:01:31;24.60;1.00
1455;DHT22;721;48.168;12.818;2022-09-03T16:04:06;24.50;1.00
1455;DHT22;721;48.168;12.818;2022-09-03T16:06:46;24.40;1.00
1455;DHT22;721;48.168;12.818;2022-09-03T16:09:29;24.40;1.00
1455;DHT22;721;48.168;12.818;2022-09-03T16:12:09;24.40;1.00
1455;DHT22;721;48.168;12.818;2022-09-03T16:14:39;24.30;1.00
1455;DHT22;721;48.168;12.818;2022-09-03T16:17:20;24.10;1.00
1455;DHT22;721;48.168;12.818;2022-09-03T16:19:54;24.10;1.00
1455;DHT22;721;48.168;12.818;2022-09-03T16:22:26;24.00;1.00
1455;DHT22;721;48.168;12.818;2022-09-03T16:24:58;23.80;1.00
1455;DHT22;721;48.168;12.818;2022-09-03T16:27:28;23.80;1.00
1455;DHT22;721;48.168;12.818;2022-09-03T16:30:00;23.70;1.00
1455;DHT22;721;48.168;12.818;2022-09-03T16:32:52;23.80;1.00
1455;DHT22;721;48.168;12.818;2022-09-03T16:35:34;23.70;1.00
1455;DHT22;721;48.168;12.818;2022-09-03T16:38:14;23.60;1.00
1455;DHT22;721;48.168;12.818;2022-09-03T16:40:46;23.80;1.00
1455;DHT22;721;48.168;12.818;2022-09-03T16:43:25;23.80;1.00
1455;DHT22;721;48.168;12.818;2022-09-03T16:46:05;23.50;1.00
1455;DHT22;721;48.168;12.818;2022-09-03T16:48:44;23.20;1.00
1455;DHT22;721;48.168;12.818;2022-09-03T16:51:25;22.60;1.00
1455;DHT22;721;48.168;12.818;2022-09-03T16:54:09;21.50;8.40
1455;DHT22;721;48.168;12.818;2022-09-03T16:56:53;20.70;16.40
1455;DHT22;721;48.168;12.818;2022-09-03T16:59:49;19.80;23.30
1455;DHT22;721;48.168;12.818;2022-09-03T17:02:36;19.10;28.50
1455;DHT22;721;48.168;12.818;2022-09-03T17:05:45;18.90;35.00
1455;DHT22;721;48.168;12.818;2022-09-03T17:08:21;18.50;40.20
1455;DHT22;721;48.168;12.818;2022-09-03T17:11:02;18.40;48.30